Rechercher aéroport 
image banner adimage banner adimage banner ad
image banner ad

07CL - Richvale

Situé à Richvale, United States

ICAO - 07CL, IATA -

Données fournies par Airmate  

Information générale

Coordonnées: N39°29'52" W121°46'17"
Élévation : 100 feet MSL.
Variation magnétique : 17° East
Voir autres Aéroports à California

Données opérationnelles

Special qualification required
Heure actuelle UTC:
Heure actuelle locale:
Météo à : KOVE - Oroville Muni ( 13 km )
METAR: KOVE 260953Z AUTO 16011KT 10SM CLR 19/09 A2992 RMK AO2 SLP131 T01890089
Voir NOTAMs / SUP AIP / TFR affectant cet aéroport [VIEW]
Fréquences de communication: [VIEW]

Pistes:

Identifiant RWYQFULongueur (ft)Largeur (ft)SurfaceLDA (ft)
16222050ASPH
34222050ASPH

Coordonnées de l'aéroport

Adresse: Richvale United States

Vue satellite de 07CL